createdAt,value
2018-12-25T00:00:49.960Z,78.74
2018-12-25T00:03:38.081Z,78.79
2018-12-25T00:06:26.179Z,78.59
2018-12-25T00:09:14.314Z,78.52
2018-12-25T00:12:02.403Z,78.49
2018-12-25T00:14:31.246Z,78.01
2018-12-25T00:17:19.331Z,77.90
2018-12-25T00:19:48.168Z,77.40
2018-12-25T00:22:17.250Z,77.28
2018-12-25T00:24:46.237Z,76.94
2018-12-25T00:27:34.367Z,76.44
2018-12-25T00:30:22.454Z,76.18
2018-12-25T00:32:51.438Z,76.22
2018-12-25T00:35:39.530Z,76.20
2018-12-25T00:38:27.677Z,76.21
2018-12-25T00:41:15.762Z,76.47
2018-12-25T00:43:44.605Z,76.58
2018-12-25T00:46:13.486Z,76.65
2018-12-25T00:48:42.322Z,76.30
2018-12-25T00:51:11.206Z,76.02
2018-12-25T00:53:40.074Z,75.73
2018-12-25T00:56:09.062Z,75.93
2018-12-25T00:58:37.873Z,75.76
2018-12-25T01:01:06.751Z,75.64
2018-12-25T01:03:35.691Z,75.34
2018-12-25T01:06:04.554Z,75.41
2018-12-25T01:08:33.480Z,75.23
2018-12-25T01:11:21.569Z,75.14
2018-12-25T01:14:09.699Z,75.11
2018-12-25T01:16:57.658Z,74.99
2018-12-25T01:22:49.547Z,74.67
2018-12-25T01:25:37.423Z,74.58
2018-12-25T01:28:25.610Z,74.76
2018-12-25T01:31:13.447Z,74.92
2018-12-25T01:36:50.739Z,74.43
2018-12-25T01:39:19.706Z,74.41
2018-12-25T01:41:48.613Z,74.40
2018-12-25T01:44:36.844Z,74.71
2018-12-25T01:47:05.683Z,74.73
2018-12-25T01:49:34.552Z,74.74
2018-12-25T01:52:22.654Z,74.31
2018-12-25T01:57:58.653Z,74.33
2018-12-25T02:00:46.771Z,74.75
2018-12-25T02:03:34.906Z,74.40
2018-12-25T02:06:22.983Z,74.16
2018-12-25T02:08:51.784Z,74.27
2018-12-25T02:14:27.780Z,74.28
2018-12-25T02:17:15.875Z,74.62
2018-12-25T02:20:03.990Z,74.38
2018-12-25T02:25:39.950Z,74.50
2018-12-25T02:28:28.036Z,74.81
2018-12-25T02:31:15.989Z,74.65
2018-12-25T02:34:04.128Z,74.87
2018-12-25T02:36:33.021Z,75.07
2018-12-25T02:39:21.141Z,74.60
2018-12-25T02:41:50.042Z,74.63
2018-12-25T02:44:38.170Z,74.83
2018-12-25T02:47:26.145Z,74.21
2018-12-25T02:53:02.071Z,74.61
2018-12-25T02:58:38.027Z,74.40
2018-12-25T03:01:26.133Z,74.46
2018-12-25T03:04:25.933Z,74.69
2018-12-25T03:06:44.842Z,74.55
2018-12-25T03:09:32.970Z,74.50
2018-12-25T03:12:21.154Z,74.61
2018-12-25T03:14:49.971Z,74.82
2018-12-25T03:17:37.916Z,75.22
2018-12-25T03:20:46.476Z,75.00
2018-12-25T03:23:15.274Z,75.20
2018-12-25T03:25:44.128Z,74.89
2018-12-25T03:28:32.189Z,74.68
2018-12-25T03:31:01.050Z,74.77
2018-12-25T03:33:29.838Z,74.74
2018-12-25T03:35:58.673Z,74.72
2018-12-25T03:38:46.800Z,74.88
2018-12-25T03:41:15.680Z,74.76
2018-12-25T03:44:03.862Z,74.39
2018-12-25T03:46:32.801Z,74.43
2018-12-25T03:49:01.650Z,74.66
2018-12-25T03:54:24.176Z,74.17
2018-12-25T03:57:12.321Z,74.38
2018-12-25T03:59:41.197Z,74.15
2018-12-25T04:02:29.318Z,74.27
2018-12-25T04:04:58.105Z,74.42
2018-12-25T04:07:26.885Z,74.14
2018-12-25T04:10:15.061Z,73.86
2018-12-25T04:12:43.841Z,73.88
2018-12-25T04:15:12.706Z,73.78
2018-12-25T04:17:41.607Z,74.14
2018-12-25T04:20:29.720Z,74.39
2018-12-25T04:22:58.602Z,74.28
2018-12-25T04:25:46.702Z,73.88
2018-12-25T04:28:15.504Z,74.15
2018-12-25T04:30:44.354Z,73.79
2018-12-25T04:33:32.448Z,73.82
2018-12-25T04:36:01.327Z,73.93
2018-12-25T04:38:49.427Z,73.79
2018-12-25T04:41:18.251Z,74.00
2018-12-25T04:43:47.076Z,73.86
2018-12-25T04:46:34.963Z,73.67
2018-12-25T04:49:03.756Z,73.95
2018-12-25T04:51:32.544Z,73.87
2018-12-25T04:54:01.450Z,73.81
2018-12-25T04:56:49.572Z,73.66
2018-12-25T04:59:37.700Z,73.93
2018-12-25T05:02:06.562Z,74.00
2018-12-25T05:04:35.494Z,73.85
2018-12-25T05:07:04.384Z,74.25
2018-12-25T05:09:52.496Z,74.31
2018-12-25T05:12:40.593Z,74.31
2018-12-25T05:15:28.414Z,74.19
2018-12-25T05:18:16.546Z,73.85
2018-12-25T05:21:04.623Z,73.94
2018-12-25T05:23:52.724Z,73.90
2018-12-25T05:26:21.526Z,73.65
2018-12-25T05:28:50.378Z,73.59
2018-12-25T05:31:38.490Z,73.87
2018-12-25T05:34:26.592Z,73.90
2018-12-25T05:37:14.418Z,74.25
2018-12-25T05:39:43.265Z,74.05
2018-12-25T05:42:31.368Z,74.04
2018-12-25T05:45:19.601Z,74.11
2018-12-25T05:48:07.708Z,74.33
2018-12-25T05:50:55.854Z,74.10
2018-12-25T05:53:43.946Z,73.77
2018-12-25T05:56:31.880Z,73.92
2018-12-25T05:59:19.995Z,73.88
2018-12-25T06:01:48.842Z,73.92
2018-12-25T06:04:36.931Z,73.65
2018-12-25T06:07:05.858Z,73.62
2018-12-25T06:09:34.662Z,73.96
2018-12-25T06:15:16.551Z,74.20
2018-12-25T06:18:04.681Z,74.28
2018-12-25T06:20:33.475Z,74.73
2018-12-25T06:23:02.261Z,74.99
2018-12-25T06:25:31.052Z,75.01
2018-12-25T06:28:00.004Z,74.88
2018-12-25T06:30:28.865Z,74.78
2018-12-25T06:32:57.716Z,75.12
2018-12-25T06:35:26.678Z,75.94
2018-12-25T06:37:55.512Z,76.58
2018-12-25T06:40:43.636Z,76.83
2018-12-25T06:43:12.412Z,76.99
2018-12-25T06:45:41.196Z,77.38
2018-12-25T06:48:10.027Z,77.49
2018-12-25T06:50:38.895Z,77.52
2018-12-25T06:53:07.795Z,77.45
2018-12-25T06:55:36.577Z,77.43
2018-12-25T06:58:05.402Z,77.43
2018-12-25T07:00:34.304Z,77.14
2018-12-25T07:03:45.147Z,76.88
2018-12-25T07:06:14.022Z,76.93
2018-12-25T07:09:02.115Z,77.15
2018-12-25T07:11:30.987Z,77.12
2018-12-25T07:13:59.885Z,77.20
2018-12-25T07:16:28.741Z,76.95
2018-12-25T07:18:57.644Z,76.83
2018-12-25T07:21:26.567Z,76.61
2018-12-25T07:23:55.380Z,76.48
2018-12-25T07:26:24.179Z,76.67
2018-12-25T07:28:53.221Z,76.30
2018-12-25T07:31:22.075Z,76.06
2018-12-25T07:33:50.936Z,75.80
2018-12-25T07:36:19.843Z,75.89
2018-12-25T07:38:48.702Z,75.31
2018-12-25T07:41:36.794Z,75.50
2018-12-25T07:44:05.657Z,75.22
2018-12-25T07:46:34.426Z,74.68
2018-12-25T07:49:03.330Z,74.66
2018-12-25T07:51:32.208Z,74.69
2018-12-25T07:54:01.096Z,74.70
2018-12-25T07:56:29.943Z,74.42
2018-12-25T07:58:58.801Z,74.52
2018-12-25T08:01:27.652Z,74.57
2018-12-25T08:03:56.540Z,74.59
2018-12-25T08:06:25.402Z,74.32
2018-12-25T08:08:54.312Z,73.98
2018-12-25T08:11:42.448Z,73.72
2018-12-25T08:14:11.234Z,73.90
2018-12-25T08:16:40.180Z,74.01
2018-12-25T08:19:09.091Z,73.72
2018-12-25T08:21:37.952Z,73.21
2018-12-25T08:24:06.783Z,73.09
2018-12-25T08:26:35.661Z,72.95
2018-12-25T08:29:23.789Z,72.93
2018-12-25T08:31:52.674Z,73.17
2018-12-25T08:34:21.544Z,73.14
2018-12-25T08:36:50.533Z,73.19
2018-12-25T08:39:21.806Z,72.81
2018-12-25T08:41:51.437Z,73.14
2018-12-25T08:44:21.262Z,72.97
2018-12-25T08:46:50.156Z,73.09
2018-12-25T08:49:19.085Z,72.84
2018-12-25T08:51:47.897Z,72.51
2018-12-25T08:54:16.765Z,72.32
2018-12-25T08:56:45.616Z,72.45
2018-12-25T08:59:14.516Z,72.64
2018-12-25T09:01:43.380Z,72.92
2018-12-25T09:04:12.185Z,72.92
2018-12-25T09:06:41.198Z,73.00
2018-12-25T09:09:10.184Z,73.10
2018-12-25T09:11:39.010Z,72.99
2018-12-25T09:14:07.902Z,72.98
2018-12-25T09:16:36.770Z,72.93
2018-12-25T09:19:05.577Z,72.31
2018-12-25T09:21:34.513Z,72.41
2018-12-25T09:24:03.377Z,72.12
2018-12-25T09:26:32.289Z,72.35
2018-12-25T09:29:01.099Z,72.18
2018-12-25T09:31:29.928Z,72.16
2018-12-25T09:33:58.904Z,72.34
2018-12-25T09:36:27.751Z,71.93
2018-12-25T09:38:56.698Z,72.14
2018-12-25T09:41:25.607Z,71.91
2018-12-25T09:43:54.528Z,72.09
2018-12-25T09:46:23.381Z,72.18
2018-12-25T09:48:52.284Z,72.16
2018-12-25T09:51:21.259Z,71.55
2018-12-25T09:53:50.129Z,71.28
2018-12-25T09:56:19.056Z,71.17
2018-12-25T09:58:47.944Z,71.09
2018-12-25T10:01:16.834Z,71.00
2018-12-25T10:03:45.734Z,70.94
2018-12-25T10:06:14.648Z,70.91
2018-12-25T10:08:43.554Z,71.04
2018-12-25T10:11:12.451Z,71.30
2018-12-25T10:13:41.320Z,71.38
2018-12-25T10:16:10.217Z,71.42
2018-12-25T10:18:39.270Z,71.30
2018-12-25T10:21:08.099Z,71.43
2018-12-25T10:23:36.884Z,71.19
2018-12-25T10:26:05.713Z,70.76
2018-12-25T10:28:34.584Z,71.09
2018-12-25T10:31:03.566Z,70.76
2018-12-25T10:33:32.391Z,70.60
2018-12-25T10:36:01.184Z,70.32
2018-12-25T10:38:30.080Z,70.06
2018-12-25T10:40:59.085Z,70.20
2018-12-25T10:43:28.062Z,70.41
2018-12-25T10:45:56.936Z,70.38
2018-12-25T10:48:25.807Z,70.31
2018-12-25T10:51:15.653Z,70.20
2018-12-25T10:53:44.533Z,70.39
2018-12-25T10:56:32.637Z,70.62
2018-12-25T10:59:20.759Z,70.69
2018-12-25T11:01:49.728Z,70.60
2018-12-25T11:04:18.639Z,70.83
2018-12-25T11:06:47.599Z,70.92
2018-12-25T11:09:16.476Z,70.68
2018-12-25T11:11:45.277Z,71.09
2018-12-25T11:14:14.198Z,70.74
2018-12-25T11:16:43.197Z,70.91
2018-12-25T11:19:12.069Z,71.09
2018-12-25T11:21:41.019Z,70.90
2018-12-25T11:24:09.921Z,70.93
2018-12-25T11:26:38.868Z,70.54
2018-12-25T11:29:07.716Z,70.66
2018-12-25T11:31:36.556Z,70.56
2018-12-25T11:34:05.465Z,70.68
2018-12-25T11:36:34.426Z,70.79
2018-12-25T11:39:22.338Z,70.48
2018-12-25T11:42:10.461Z,70.53
2018-12-25T11:44:39.365Z,70.34
2018-12-25T11:47:08.260Z,70.33
2018-12-25T11:49:37.158Z,70.42
2018-12-25T11:52:06.104Z,70.43
2018-12-25T11:54:34.915Z,70.03
2018-12-25T11:57:03.723Z,69.93
2018-12-25T11:59:32.633Z,69.91
2018-12-25T12:02:01.443Z,69.75
2018-12-25T12:04:49.601Z,69.84
2018-12-25T12:07:18.534Z,69.31
2018-12-25T12:09:47.307Z,68.93
2018-12-25T12:12:16.173Z,68.98
2018-12-25T12:15:04.207Z,68.94
2018-12-25T12:17:52.059Z,69.01
2018-12-25T12:20:40.276Z,68.70
2018-12-25T12:26:16.215Z,66.88
2018-12-25T12:28:47.373Z,66.64
2018-12-25T12:31:35.521Z,66.65
2018-12-25T12:34:23.372Z,66.79
2018-12-25T12:36:52.267Z,66.91
2018-12-25T12:39:21.132Z,66.83
2018-12-25T12:41:50.087Z,66.97
2018-12-25T12:44:18.994Z,66.97
2018-12-25T12:46:47.875Z,66.98
2018-12-25T12:49:16.761Z,67.18
2018-12-25T12:51:45.723Z,67.30
2018-12-25T12:54:14.599Z,67.30
2018-12-25T12:56:43.589Z,67.44
2018-12-25T12:59:12.536Z,67.59
2018-12-25T13:01:41.461Z,67.31
2018-12-25T13:04:29.572Z,66.70
2018-12-25T13:06:58.435Z,66.57
2018-12-25T13:09:46.546Z,66.44
2018-12-25T13:12:34.675Z,66.42
2018-12-25T13:15:24.922Z,66.27
2018-12-25T13:17:53.853Z,66.41
2018-12-25T13:20:41.960Z,66.63
2018-12-25T13:23:13.539Z,66.61
2018-12-25T13:26:01.655Z,67.03
2018-12-25T13:28:30.495Z,67.01
2018-12-25T13:31:18.629Z,67.58
2018-12-25T13:34:06.753Z,67.88
2018-12-25T13:36:35.721Z,67.97
2018-12-25T13:39:44.363Z,67.95
2018-12-25T13:42:32.455Z,67.73
2018-12-25T13:45:20.592Z,67.72
2018-12-25T13:47:49.439Z,67.41
2018-12-25T13:50:18.944Z,67.23
2018-12-25T13:52:47.808Z,67.01
2018-12-25T13:55:35.914Z,66.95
2018-12-25T14:01:51.539Z,66.74
2018-12-25T14:04:20.407Z,66.31
2018-12-25T14:07:08.579Z,66.70
2018-12-25T14:09:37.389Z,66.54
2018-12-25T14:12:25.530Z,66.57
2018-12-25T14:15:13.628Z,66.82
2018-12-25T14:18:04.363Z,66.67
2018-12-25T14:20:33.231Z,66.76
2018-12-25T14:23:02.078Z,67.00
2018-12-25T14:28:38.052Z,66.79
2018-12-25T14:34:14.042Z,66.98
2018-12-25T14:39:50.105Z,66.96
2018-12-25T14:45:26.088Z,67.57
2018-12-25T14:48:14.184Z,67.76
2018-12-25T14:50:44.854Z,67.78
2018-12-25T14:56:20.810Z,67.86
2018-12-25T14:58:49.635Z,67.87
2018-12-25T15:01:37.760Z,68.22
2018-12-25T15:04:25.929Z,68.38
2018-12-25T15:07:13.834Z,68.39
2018-12-25T15:12:49.748Z,68.81
2018-12-25T15:15:18.551Z,68.86
2018-12-25T15:18:06.572Z,69.00
2018-12-25T15:20:35.367Z,68.87
2018-12-25T15:23:04.303Z,68.70
2018-12-25T15:25:33.191Z,68.62
2018-12-25T15:28:02.082Z,68.68
2018-12-25T15:30:30.977Z,68.87
2018-12-25T15:32:59.847Z,68.99
2018-12-25T15:35:28.733Z,68.70
2018-12-25T15:37:57.626Z,68.94
2018-12-25T15:40:26.513Z,69.03
2018-12-25T15:42:55.427Z,69.14
2018-12-25T15:45:24.401Z,69.01
2018-12-25T15:47:53.297Z,69.06
2018-12-25T15:50:22.119Z,68.78
2018-12-25T15:53:36.872Z,68.88
2018-12-25T15:56:20.974Z,69.07
2018-12-25T15:59:09.322Z,68.99
2018-12-25T16:01:38.143Z,69.02
2018-12-25T16:04:07.181Z,68.96
2018-12-25T16:06:55.017Z,68.70
2018-12-25T16:09:42.872Z,68.90
2018-12-25T16:15:18.959Z,68.85
2018-12-25T16:18:07.088Z,69.15
2018-12-25T16:20:55.223Z,69.32
2018-12-25T16:23:45.556Z,69.41
2018-12-25T16:26:13.852Z,69.37
2018-12-25T16:29:01.696Z,69.34
2018-12-25T16:31:49.832Z,69.45
2018-12-25T16:34:37.917Z,69.29
2018-12-25T16:37:26.037Z,69.19
2018-12-25T16:40:15.965Z,69.09
2018-12-25T16:42:44.892Z,68.99
2018-12-25T16:45:32.733Z,69.39
2018-12-25T16:48:01.647Z,69.31
2018-12-25T16:50:30.523Z,69.58
2018-12-25T16:52:59.565Z,69.42
2018-12-25T16:55:28.365Z,69.07
2018-12-25T16:57:57.600Z,69.49
2018-12-25T17:00:26.517Z,69.50
2018-12-25T17:02:55.414Z,69.34
2018-12-25T17:05:24.312Z,69.69
2018-12-25T17:07:53.235Z,69.49
2018-12-25T17:10:22.138Z,69.40
2018-12-25T17:12:51.056Z,69.54
2018-12-25T17:15:19.932Z,69.78
2018-12-25T17:17:48.835Z,69.89
2018-12-25T17:20:17.761Z,69.65
2018-12-25T17:22:46.625Z,69.73
2018-12-25T17:25:15.512Z,69.61
2018-12-25T17:27:44.442Z,69.69
2018-12-25T17:30:13.330Z,69.71
2018-12-25T17:32:42.208Z,69.73
2018-12-25T17:35:30.078Z,69.45
2018-12-25T17:37:59.095Z,69.68
2018-12-25T17:40:46.940Z,69.47
2018-12-25T17:43:35.121Z,69.82
2018-12-25T17:46:04.165Z,70.27
2018-12-25T17:48:52.261Z,70.36
2018-12-25T17:51:40.352Z,70.62
2018-12-25T17:54:28.350Z,70.80
2018-12-25T17:57:16.451Z,70.64
2018-12-25T17:59:45.315Z,70.72
2018-12-25T18:02:14.185Z,71.01
2018-12-25T18:04:43.460Z,70.80
2018-12-25T18:07:31.773Z,71.01
2018-12-25T18:10:19.944Z,71.08
2018-12-25T18:13:08.150Z,71.02
2018-12-25T18:15:56.270Z,70.76
2018-12-25T18:18:44.141Z,70.90
2018-12-25T18:21:13.048Z,71.13
2018-12-25T18:24:01.169Z,70.88
2018-12-25T18:26:49.327Z,70.79
2018-12-25T18:29:18.240Z,70.86
2018-12-25T18:32:06.399Z,70.88
2018-12-25T18:34:54.482Z,71.11
2018-12-25T18:37:42.402Z,70.96
2018-12-25T18:40:30.286Z,71.00
2018-12-25T18:43:18.472Z,71.26
2018-12-25T18:46:06.653Z,70.57
2018-12-25T18:48:55.016Z,70.84
2018-12-25T18:51:43.109Z,71.00
2018-12-25T18:57:14.206Z,70.74
2018-12-25T18:59:43.068Z,71.11
2018-12-25T19:02:12.007Z,70.77
2018-12-25T19:04:40.845Z,70.64
2018-12-25T19:10:22.617Z,70.38
2018-12-25T19:12:51.701Z,70.33
2018-12-25T19:15:22.889Z,70.38
2018-12-25T19:17:53.123Z,70.19
2018-12-25T19:20:41.120Z,70.47
2018-12-25T19:23:10.024Z,70.48
2018-12-25T19:25:39.125Z,70.48
2018-12-25T19:28:08.050Z,70.24
2018-12-25T19:30:44.093Z,70.31
2018-12-25T19:33:12.978Z,70.35
2018-12-25T19:35:41.991Z,70.37
2018-12-25T19:38:10.906Z,70.23
2018-12-25T19:40:39.879Z,70.23
2018-12-25T19:43:08.829Z,70.37
2018-12-25T19:45:37.770Z,70.00
2018-12-25T19:48:06.711Z,70.31
2018-12-25T19:50:35.663Z,70.00
2018-12-25T19:53:04.748Z,70.46
2018-12-25T19:55:33.726Z,70.19
2018-12-25T19:58:02.828Z,70.23
2018-12-25T20:00:31.611Z,70.09
2018-12-25T20:03:23.125Z,70.10
2018-12-25T20:06:30.319Z,70.12
2018-12-25T20:09:37.598Z,69.98
2018-12-25T20:12:43.754Z,70.18
2018-12-25T20:15:51.002Z,69.92
2018-12-25T20:18:58.248Z,70.02
2018-12-25T20:22:05.444Z,69.55
2018-12-25T20:25:12.688Z,69.86
2018-12-25T20:28:19.918Z,69.53
2018-12-25T20:31:27.248Z,69.59
2018-12-25T20:34:34.452Z,69.19
2018-12-25T20:37:41.683Z,69.55
2018-12-25T20:40:48.929Z,69.56
2018-12-25T20:43:56.226Z,69.20
2018-12-25T20:47:03.486Z,68.92
2018-12-25T20:50:10.725Z,68.86
2018-12-25T20:53:36.306Z,68.94
2018-12-25T20:59:59.008Z,68.58
2018-12-25T21:03:06.233Z,68.99
2018-12-25T21:06:13.525Z,68.97
2018-12-25T21:09:20.733Z,68.92
2018-12-25T21:12:19.360Z,68.96
2018-12-25T21:15:26.568Z,69.05
2018-12-25T21:18:33.827Z,69.53
2018-12-25T21:21:41.035Z,69.87
2018-12-25T21:24:48.285Z,70.13
2018-12-25T21:27:35.632Z,70.33
2018-12-25T21:30:45.478Z,70.66
2018-12-25T21:33:14.461Z,71.00
2018-12-25T21:36:02.395Z,71.14
2018-12-25T21:38:31.364Z,71.28
2018-12-25T21:41:00.346Z,71.62
2018-12-25T21:43:29.222Z,71.88
2018-12-25T21:45:58.115Z,71.56
2018-12-25T21:48:27.008Z,71.67
2018-12-25T21:50:55.900Z,71.80
2018-12-25T21:53:24.811Z,72.00
2018-12-25T21:55:53.923Z,72.07
2018-12-25T21:58:22.805Z,71.68
2018-12-25T22:00:51.763Z,71.74
2018-12-25T22:03:20.667Z,72.01
2018-12-25T22:05:49.503Z,71.54
2018-12-25T22:08:18.473Z,71.44
2018-12-25T22:10:47.369Z,71.57
2018-12-25T22:13:16.259Z,71.65
2018-12-25T22:15:45.253Z,71.30
2018-12-25T22:18:35.556Z,71.55
2018-12-25T22:21:04.504Z,71.38
2018-12-25T22:23:33.315Z,71.35
2018-12-25T22:29:30.985Z,71.27
2018-12-25T22:31:59.919Z,71.73
2018-12-25T22:34:28.855Z,71.69
2018-12-25T22:36:57.850Z,71.50
2018-12-25T22:39:26.848Z,71.73
2018-12-25T22:41:55.747Z,71.70
2018-12-25T22:44:24.727Z,71.81
2018-12-25T22:46:53.643Z,71.80
2018-12-25T22:51:50.442Z,72.14
2018-12-25T22:54:19.340Z,72.49
2018-12-25T22:56:48.314Z,72.60
2018-12-25T22:59:17.211Z,72.62
2018-12-25T23:01:46.058Z,72.68
2018-12-25T23:04:14.957Z,72.64
2018-12-25T23:06:43.960Z,72.78
2018-12-25T23:09:12.927Z,72.79
2018-12-25T23:11:41.734Z,72.79
2018-12-25T23:14:10.620Z,73.05
2018-12-25T23:16:39.522Z,72.87
2018-12-25T23:19:08.414Z,72.86
2018-12-25T23:21:43.943Z,72.99
2018-12-25T23:24:15.359Z,72.94
2018-12-25T23:26:44.315Z,72.91
2018-12-25T23:29:13.344Z,72.89
2018-12-25T23:31:42.265Z,72.92
2018-12-25T23:34:11.281Z,72.90
2018-12-25T23:36:40.115Z,73.02
2018-12-25T23:39:09.038Z,73.13
2018-12-25T23:41:37.948Z,73.18
2018-12-25T23:44:06.824Z,73.15
2018-12-25T23:46:35.723Z,73.15
2018-12-25T23:49:04.650Z,73.10
2018-12-25T23:51:33.542Z,73.22
2018-12-25T23:57:31.256Z,73.35
